sensor_id;sensor_type;location;lat;lon;timestamp;P1;durP1;ratioP1;P2;durP2;ratioP2
13603;SDS011;24578;48.264;11.436;2023-09-12T00:01:03;13.57;;;8.90;;
13603;SDS011;24578;48.264;11.436;2023-09-12T00:07:26;14.43;;;9.73;;
13603;SDS011;24578;48.264;11.436;2023-09-12T00:13:47;16.83;;;9.27;;
13603;SDS011;24578;48.264;11.436;2023-09-12T00:20:08;14.20;;;8.80;;
13603;SDS011;24578;48.264;11.436;2023-09-12T00:26:30;13.10;;;8.60;;
13603;SDS011;24578;48.264;11.436;2023-09-12T00:32:51;12.75;;;8.48;;
13603;SDS011;24578;48.264;11.436;2023-09-12T00:39:12;14.80;;;8.82;;
13603;SDS011;24578;48.264;11.436;2023-09-12T00:45:34;15.07;;;8.77;;
13603;SDS011;24578;48.264;11.436;2023-09-12T00:51:55;13.45;;;8.88;;
13603;SDS011;24578;48.264;11.436;2023-09-12T00:58:17;15.63;;;9.57;;
13603;SDS011;24578;48.264;11.436;2023-09-12T01:04:39;15.43;;;9.07;;
13603;SDS011;24578;48.264;11.436;2023-09-12T01:11:01;14.90;;;9.13;;
13603;SDS011;24578;48.264;11.436;2023-09-12T01:17:23;16.83;;;9.65;;
13603;SDS011;24578;48.264;11.436;2023-09-12T01:30:32;14.15;;;8.93;;
13603;SDS011;24578;48.264;11.436;2023-09-12T01:36:56;15.52;;;9.30;;
13603;SDS011;24578;48.264;11.436;2023-09-12T01:43:19;14.05;;;8.70;;
13603;SDS011;24578;48.264;11.436;2023-09-12T01:49:45;15.40;;;8.43;;
13603;SDS011;24578;48.264;11.436;2023-09-12T01:56:08;14.88;;;9.00;;
13603;SDS011;24578;48.264;11.436;2023-09-12T02:08:50;13.18;;;7.75;;
13603;SDS011;24578;48.264;11.436;2023-09-12T02:15:12;17.83;;;9.95;;
13603;SDS011;24578;48.264;11.436;2023-09-12T02:27:54;16.00;;;9.40;;
13603;SDS011;24578;48.264;11.436;2023-09-12T02:40:38;16.05;;;9.45;;
13603;SDS011;24578;48.264;11.436;2023-09-12T02:46:59;56.15;;;39.10;;
13603;SDS011;24578;48.264;11.436;2023-09-12T02:53:20;55.83;;;32.80;;
13603;SDS011;24578;48.264;11.436;2023-09-12T02:59:41;20.25;;;12.32;;
13603;SDS011;24578;48.264;11.436;2023-09-12T03:12:24;12.95;;;8.05;;
13603;SDS011;24578;48.264;11.436;2023-09-12T03:18:45;13.95;;;8.13;;
13603;SDS011;24578;48.264;11.436;2023-09-12T03:25:07;16.67;;;9.43;;
13603;SDS011;24578;48.264;11.436;2023-09-12T03:31:28;15.32;;;9.20;;
13603;SDS011;24578;48.264;11.436;2023-09-12T03:37:49;37.80;;;23.08;;
13603;SDS011;24578;48.264;11.436;2023-09-12T03:50:32;17.33;;;10.07;;
13603;SDS011;24578;48.264;11.436;2023-09-12T03:56:53;14.93;;;9.20;;
13603;SDS011;24578;48.264;11.436;2023-09-12T04:03:14;14.80;;;9.30;;
13603;SDS011;24578;48.264;11.436;2023-09-12T04:09:37;16.10;;;9.73;;
13603;SDS011;24578;48.264;11.436;2023-09-12T04:15:58;15.00;;;9.38;;
13603;SDS011;24578;48.264;11.436;2023-09-12T04:22:19;13.90;;;8.65;;
13603;SDS011;24578;48.264;11.436;2023-09-12T04:28:40;13.98;;;8.75;;
13603;SDS011;24578;48.264;11.436;2023-09-12T04:35:01;15.52;;;8.50;;
13603;SDS011;24578;48.264;11.436;2023-09-12T04:41:24;15.68;;;9.25;;
13603;SDS011;24578;48.264;11.436;2023-09-12T04:47:45;14.13;;;8.68;;
13603;SDS011;24578;48.264;11.436;2023-09-12T04:54:07;16.58;;;9.55;;
13603;SDS011;24578;48.264;11.436;2023-09-12T05:06:49;15.40;;;9.27;;
13603;SDS011;24578;48.264;11.436;2023-09-12T05:13:10;14.63;;;8.90;;
13603;SDS011;24578;48.264;11.436;2023-09-12T05:19:31;14.63;;;8.75;;
13603;SDS011;24578;48.264;11.436;2023-09-12T05:32:13;22.48;;;13.82;;
13603;SDS011;24578;48.264;11.436;2023-09-12T05:38:36;15.05;;;9.10;;
13603;SDS011;24578;48.264;11.436;2023-09-12T05:44:57;17.67;;;10.07;;
13603;SDS011;24578;48.264;11.436;2023-09-12T05:51:19;15.02;;;8.98;;
13603;SDS011;24578;48.264;11.436;2023-09-12T05:57:40;13.38;;;8.68;;
13603;SDS011;24578;48.264;11.436;2023-09-12T06:04:01;12.02;;;8.35;;
13603;SDS011;24578;48.264;11.436;2023-09-12T06:10:22;13.75;;;8.40;;
13603;SDS011;24578;48.264;11.436;2023-09-12T06:16:43;15.68;;;10.95;;
13603;SDS011;24578;48.264;11.436;2023-09-12T06:23:05;13.18;;;8.20;;
13603;SDS011;24578;48.264;11.436;2023-09-12T06:29:26;11.40;;;7.40;;
13603;SDS011;24578;48.264;11.436;2023-09-12T06:35:48;13.05;;;9.13;;
13603;SDS011;24578;48.264;11.436;2023-09-12T06:42:10;13.65;;;8.13;;
13603;SDS011;24578;48.264;11.436;2023-09-12T06:48:32;13.55;;;9.35;;
13603;SDS011;24578;48.264;11.436;2023-09-12T06:54:53;12.48;;;7.82;;
13603;SDS011;24578;48.264;11.436;2023-09-12T07:01:14;10.70;;;7.20;;
13603;SDS011;24578;48.264;11.436;2023-09-12T07:07:36;10.10;;;7.13;;
13603;SDS011;24578;48.264;11.436;2023-09-12T07:13:57;9.75;;;6.70;;
13603;SDS011;24578;48.264;11.436;2023-09-12T07:20:18;10.57;;;7.85;;
13603;SDS011;24578;48.264;11.436;2023-09-12T07:26:40;11.45;;;8.30;;
13603;SDS011;24578;48.264;11.436;2023-09-12T07:33:02;10.38;;;6.80;;
13603;SDS011;24578;48.264;11.436;2023-09-12T07:39:25;9.93;;;6.88;;
13603;SDS011;24578;48.264;11.436;2023-09-12T07:45:46;9.05;;;6.75;;
13603;SDS011;24578;48.264;11.436;2023-09-12T07:52:07;9.57;;;6.97;;
13603;SDS011;24578;48.264;11.436;2023-09-12T07:58:28;9.45;;;6.60;;
13603;SDS011;24578;48.264;11.436;2023-09-12T08:04:50;9.68;;;6.50;;
13603;SDS011;24578;48.264;11.436;2023-09-12T08:11:17;9.85;;;6.85;;
13603;SDS011;24578;48.264;11.436;2023-09-12T08:17:38;9.55;;;6.13;;
13603;SDS011;24578;48.264;11.436;2023-09-12T08:24:00;9.18;;;6.32;;
13603;SDS011;24578;48.264;11.436;2023-09-12T08:30:21;8.95;;;6.15;;
13603;SDS011;24578;48.264;11.436;2023-09-12T08:36:43;9.25;;;6.25;;
13603;SDS011;24578;48.264;11.436;2023-09-12T08:43:04;9.00;;;6.40;;
13603;SDS011;24578;48.264;11.436;2023-09-12T08:49:26;9.02;;;6.47;;
13603;SDS011;24578;48.264;11.436;2023-09-12T08:55:49;9.10;;;6.03;;
13603;SDS011;24578;48.264;11.436;2023-09-12T09:02:12;8.68;;;6.57;;
13603;SDS011;24578;48.264;11.436;2023-09-12T09:08:35;8.23;;;6.35;;
13603;SDS011;24578;48.264;11.436;2023-09-12T09:14:56;8.45;;;6.65;;
13603;SDS011;24578;48.264;11.436;2023-09-12T09:21:18;8.00;;;6.32;;
13603;SDS011;24578;48.264;11.436;2023-09-12T09:27:40;9.18;;;6.45;;
13603;SDS011;24578;48.264;11.436;2023-09-12T09:34:02;11.60;;;6.53;;
13603;SDS011;24578;48.264;11.436;2023-09-12T09:40:24;8.73;;;6.28;;
13603;SDS011;24578;48.264;11.436;2023-09-12T09:46:46;10.07;;;6.88;;
13603;SDS011;24578;48.264;11.436;2023-09-12T09:53:11;9.13;;;7.22;;
13603;SDS011;24578;48.264;11.436;2023-09-12T09:59:32;10.23;;;6.80;;
13603;SDS011;24578;48.264;11.436;2023-09-12T10:05:53;9.85;;;6.47;;
13603;SDS011;24578;48.264;11.436;2023-09-12T10:12:17;9.05;;;6.47;;
13603;SDS011;24578;48.264;11.436;2023-09-12T10:18:40;9.75;;;6.68;;
13603;SDS011;24578;48.264;11.436;2023-09-12T10:25:10;8.13;;;5.88;;
13603;SDS011;24578;48.264;11.436;2023-09-12T10:31:32;8.45;;;6.10;;
13603;SDS011;24578;48.264;11.436;2023-09-12T10:37:55;9.95;;;6.45;;
13603;SDS011;24578;48.264;11.436;2023-09-12T10:44:18;8.00;;;5.78;;
13603;SDS011;24578;48.264;11.436;2023-09-12T10:50:42;7.60;;;5.32;;
13603;SDS011;24578;48.264;11.436;2023-09-12T10:57:06;9.95;;;5.60;;
13603;SDS011;24578;48.264;11.436;2023-09-12T11:10:05;7.97;;;5.75;;
13603;SDS011;24578;48.264;11.436;2023-09-12T11:16:40;9.23;;;6.10;;
13603;SDS011;24578;48.264;11.436;2023-09-12T11:23:09;8.55;;;5.82;;
13603;SDS011;24578;48.264;11.436;2023-09-12T11:29:36;8.98;;;5.82;;
13603;SDS011;24578;48.264;11.436;2023-09-12T11:35:58;9.20;;;6.50;;
13603;SDS011;24578;48.264;11.436;2023-09-12T11:42:22;9.68;;;5.63;;
13603;SDS011;24578;48.264;11.436;2023-09-12T11:55:07;8.65;;;6.32;;
13603;SDS011;24578;48.264;11.436;2023-09-12T12:01:28;8.85;;;6.13;;
13603;SDS011;24578;48.264;11.436;2023-09-12T12:07:51;8.95;;;6.43;;
13603;SDS011;24578;48.264;11.436;2023-09-12T12:14:16;8.85;;;5.90;;
13603;SDS011;24578;48.264;11.436;2023-09-12T12:20:38;10.38;;;5.88;;
13603;SDS011;24578;48.264;11.436;2023-09-12T12:27:03;9.10;;;5.85;;
13603;SDS011;24578;48.264;11.436;2023-09-12T12:33:24;9.57;;;6.55;;
13603;SDS011;24578;48.264;11.436;2023-09-12T12:39:45;9.77;;;6.25;;
13603;SDS011;24578;48.264;11.436;2023-09-12T12:46:09;8.80;;;6.03;;
13603;SDS011;24578;48.264;11.436;2023-09-12T12:52:33;8.27;;;5.88;;
13603;SDS011;24578;48.264;11.436;2023-09-12T12:58:55;9.88;;;5.97;;
13603;SDS011;24578;48.264;11.436;2023-09-12T13:05:24;8.15;;;5.60;;
13603;SDS011;24578;48.264;11.436;2023-09-12T13:11:46;8.27;;;6.10;;
13603;SDS011;24578;48.264;11.436;2023-09-12T13:18:08;8.45;;;5.80;;
13603;SDS011;24578;48.264;11.436;2023-09-12T13:24:29;13.55;;;11.45;;
13603;SDS011;24578;48.264;11.436;2023-09-12T13:30:53;9.02;;;6.15;;
13603;SDS011;24578;48.264;11.436;2023-09-12T13:37:15;8.55;;;5.78;;
13603;SDS011;24578;48.264;11.436;2023-09-12T13:43:37;8.13;;;5.70;;
13603;SDS011;24578;48.264;11.436;2023-09-12T13:49:58;9.23;;;6.15;;
13603;SDS011;24578;48.264;11.436;2023-09-12T13:56:20;8.40;;;5.88;;
13603;SDS011;24578;48.264;11.436;2023-09-12T14:02:41;7.47;;;5.40;;
13603;SDS011;24578;48.264;11.436;2023-09-12T14:09:02;8.43;;;5.47;;
13603;SDS011;24578;48.264;11.436;2023-09-12T14:15:24;8.20;;;5.30;;
13603;SDS011;24578;48.264;11.436;2023-09-12T14:21:46;8.70;;;5.70;;
13603;SDS011;24578;48.264;11.436;2023-09-12T14:28:07;8.27;;;5.75;;
13603;SDS011;24578;48.264;11.436;2023-09-12T14:34:29;8.52;;;5.57;;
13603;SDS011;24578;48.264;11.436;2023-09-12T14:40:52;8.68;;;5.53;;
13603;SDS011;24578;48.264;11.436;2023-09-12T14:53:37;10.88;;;7.90;;
13603;SDS011;24578;48.264;11.436;2023-09-12T15:00:06;9.77;;;5.88;;
13603;SDS011;24578;48.264;11.436;2023-09-12T15:06:27;9.07;;;5.70;;
13603;SDS011;24578;48.264;11.436;2023-09-12T15:12:49;9.43;;;5.90;;
13603;SDS011;24578;48.264;11.436;2023-09-12T15:19:11;9.35;;;5.80;;
13603;SDS011;24578;48.264;11.436;2023-09-12T15:25:33;12.88;;;9.63;;
13603;SDS011;24578;48.264;11.436;2023-09-12T15:31:58;10.80;;;7.10;;
13603;SDS011;24578;48.264;11.436;2023-09-12T15:38:21;10.48;;;6.75;;
13603;SDS011;24578;48.264;11.436;2023-09-12T15:44:42;10.80;;;7.22;;
13603;SDS011;24578;48.264;11.436;2023-09-12T15:51:04;9.98;;;7.03;;
13603;SDS011;24578;48.264;11.436;2023-09-12T15:57:26;13.43;;;7.63;;
13603;SDS011;24578;48.264;11.436;2023-09-12T16:03:47;12.32;;;7.68;;
13603;SDS011;24578;48.264;11.436;2023-09-12T16:10:09;11.70;;;7.88;;
13603;SDS011;24578;48.264;11.436;2023-09-12T16:16:33;11.52;;;7.53;;
13603;SDS011;24578;48.264;11.436;2023-09-12T16:22:56;14.90;;;10.18;;
13603;SDS011;24578;48.264;11.436;2023-09-12T16:29:17;14.30;;;9.95;;
13603;SDS011;24578;48.264;11.436;2023-09-12T16:35:38;19.00;;;14.05;;
13603;SDS011;24578;48.264;11.436;2023-09-12T16:42:01;11.68;;;7.70;;
13603;SDS011;24578;48.264;11.436;2023-09-12T16:48:22;12.18;;;7.80;;
13603;SDS011;24578;48.264;11.436;2023-09-12T16:54:44;11.10;;;7.35;;
13603;SDS011;24578;48.264;11.436;2023-09-12T17:01:05;10.50;;;7.38;;
13603;SDS011;24578;48.264;11.436;2023-09-12T17:07:28;13.63;;;7.82;;
13603;SDS011;24578;48.264;11.436;2023-09-12T17:13:50;24.00;;;18.30;;
13603;SDS011;24578;48.264;11.436;2023-09-12T17:20:11;13.70;;;9.05;;
13603;SDS011;24578;48.264;11.436;2023-09-12T17:26:34;11.88;;;7.85;;
13603;SDS011;24578;48.264;11.436;2023-09-12T17:32:55;13.15;;;8.80;;
13603;SDS011;24578;48.264;11.436;2023-09-12T17:39:16;13.55;;;7.97;;
13603;SDS011;24578;48.264;11.436;2023-09-12T17:45:38;16.80;;;11.75;;
13603;SDS011;24578;48.264;11.436;2023-09-12T17:52:00;12.18;;;8.73;;
13603;SDS011;24578;48.264;11.436;2023-09-12T17:58:22;15.07;;;10.82;;
13603;SDS011;24578;48.264;11.436;2023-09-12T18:04:43;14.90;;;8.50;;
13603;SDS011;24578;48.264;11.436;2023-09-12T18:11:06;15.82;;;10.77;;
13603;SDS011;24578;48.264;11.436;2023-09-12T18:17:28;15.30;;;8.80;;
13603;SDS011;24578;48.264;11.436;2023-09-12T18:23:49;16.60;;;11.73;;
13603;SDS011;24578;48.264;11.436;2023-09-12T18:30:10;13.77;;;9.38;;
13603;SDS011;24578;48.264;11.436;2023-09-12T18:36:32;14.85;;;8.75;;
13603;SDS011;24578;48.264;11.436;2023-09-12T18:42:54;13.60;;;8.10;;
13603;SDS011;24578;48.264;11.436;2023-09-12T18:49:15;14.07;;;8.32;;
13603;SDS011;24578;48.264;11.436;2023-09-12T18:55:36;12.40;;;7.40;;
13603;SDS011;24578;48.264;11.436;2023-09-12T19:01:57;11.88;;;7.28;;
13603;SDS011;24578;48.264;11.436;2023-09-12T19:08:19;11.02;;;6.82;;
13603;SDS011;24578;48.264;11.436;2023-09-12T19:14:40;12.98;;;6.75;;
13603;SDS011;24578;48.264;11.436;2023-09-12T19:21:02;12.20;;;6.95;;
13603;SDS011;24578;48.264;11.436;2023-09-12T19:27:25;10.95;;;7.13;;
13603;SDS011;24578;48.264;11.436;2023-09-12T19:33:47;10.93;;;5.90;;
13603;SDS011;24578;48.264;11.436;2023-09-12T19:40:09;10.32;;;6.57;;
13603;SDS011;24578;48.264;11.436;2023-09-12T19:46:32;11.82;;;6.95;;
13603;SDS011;24578;48.264;11.436;2023-09-12T19:52:54;12.13;;;7.65;;
13603;SDS011;24578;48.264;11.436;2023-09-12T19:59:15;14.55;;;8.25;;
13603;SDS011;24578;48.264;11.436;2023-09-12T20:05:36;11.27;;;6.80;;
13603;SDS011;24578;48.264;11.436;2023-09-12T20:11:58;10.40;;;6.68;;
13603;SDS011;24578;48.264;11.436;2023-09-12T20:18:20;10.50;;;6.65;;
13603;SDS011;24578;48.264;11.436;2023-09-12T20:24:41;12.35;;;6.70;;
13603;SDS011;24578;48.264;11.436;2023-09-12T20:31:02;10.32;;;6.07;;
13603;SDS011;24578;48.264;11.436;2023-09-12T20:37:24;10.70;;;6.57;;
13603;SDS011;24578;48.264;11.436;2023-09-12T20:43:45;11.93;;;7.35;;
13603;SDS011;24578;48.264;11.436;2023-09-12T20:50:06;10.95;;;6.95;;
13603;SDS011;24578;48.264;11.436;2023-09-12T20:56:30;13.13;;;7.13;;
13603;SDS011;24578;48.264;11.436;2023-09-12T21:02:51;11.75;;;6.70;;
13603;SDS011;24578;48.264;11.436;2023-09-12T21:09:13;11.80;;;6.97;;
13603;SDS011;24578;48.264;11.436;2023-09-12T21:15:36;10.50;;;6.10;;
13603;SDS011;24578;48.264;11.436;2023-09-12T21:21:57;10.68;;;6.15;;
13603;SDS011;24578;48.264;11.436;2023-09-12T21:28:18;10.88;;;6.15;;
13603;SDS011;24578;48.264;11.436;2023-09-12T21:34:43;9.73;;;5.53;;
13603;SDS011;24578;48.264;11.436;2023-09-12T21:41:05;11.52;;;5.43;;
13603;SDS011;24578;48.264;11.436;2023-09-12T21:47:26;8.82;;;5.10;;
13603;SDS011;24578;48.264;11.436;2023-09-12T21:53:48;8.98;;;4.63;;
13603;SDS011;24578;48.264;11.436;2023-09-12T22:00:10;10.48;;;5.57;;
13603;SDS011;24578;48.264;11.436;2023-09-12T22:06:41;8.93;;;5.07;;
13603;SDS011;24578;48.264;11.436;2023-09-12T22:13:02;10.10;;;4.95;;
13603;SDS011;24578;48.264;11.436;2023-09-12T22:19:23;9.80;;;4.90;;
13603;SDS011;24578;48.264;11.436;2023-09-12T22:25:46;9.13;;;5.20;;
13603;SDS011;24578;48.264;11.436;2023-09-12T22:32:08;9.18;;;4.97;;
13603;SDS011;24578;48.264;11.436;2023-09-12T22:38:30;9.77;;;5.53;;
13603;SDS011;24578;48.264;11.436;2023-09-12T22:44:51;9.77;;;5.57;;
13603;SDS011;24578;48.264;11.436;2023-09-12T22:51:12;10.23;;;5.63;;
13603;SDS011;24578;48.264;11.436;2023-09-12T22:57:33;10.27;;;5.18;;
13603;SDS011;24578;48.264;11.436;2023-09-12T23:03:57;10.35;;;5.68;;
13603;SDS011;24578;48.264;11.436;2023-09-12T23:10:18;10.13;;;5.45;;
13603;SDS011;24578;48.264;11.436;2023-09-12T23:16:39;10.13;;;5.32;;
13603;SDS011;24578;48.264;11.436;2023-09-12T23:23:00;10.85;;;5.75;;
13603;SDS011;24578;48.264;11.436;2023-09-12T23:29:23;10.65;;;5.30;;
13603;SDS011;24578;48.264;11.436;2023-09-12T23:35:44;9.95;;;5.53;;
13603;SDS011;24578;48.264;11.436;2023-09-12T23:42:06;10.18;;;5.93;;
13603;SDS011;24578;48.264;11.436;2023-09-12T23:48:27;9.63;;;5.40;;
13603;SDS011;24578;48.264;11.436;2023-09-12T23:54:48;9.68;;;5.10;;
